Time;durP1;ratioP1;P1;durP2;ratioP2;P2;SDS_P1;SDS_P2;PMS_P1;PMS_P2;Temp;Humidity;BMP_temperature;BMP_pressure;BME280_temperature;BME280_humidity;BME280_pressure;Samples;Min_cycle;Max_cycle;Signal;HPM_P1;HPM_P2
2023/02/23 00:01:16;;;;;;;11.98;3.28;;;3.00;99.90;;;1.97;100.00;101230.84;4169657;28;20033;-77
2023/02/23 00:03:17;;;;;;;9.65;2.95;;;3.00;99.90;;;1.98;100.00;101235.94;4168400;28;20038;-77
2023/02/23 00:05:18;;;;;;;8.98;2.85;;;3.00;99.90;;;1.96;100.00;101248.22;4168425;28;20075;-77
2023/02/23 00:07:19;;;;;;;7.55;3.13;;;2.90;99.90;;;1.91;100.00;101245.03;4170161;28;20527;-77
2023/02/23 00:09:23;;;;;;;15.55;3.38;;;2.90;99.90;;;1.91;100.00;101250.22;4168292;28;20037;-78
2023/02/23 00:11:25;;;;;;;9.15;2.88;;;2.90;99.90;;;1.92;100.00;101257.13;4168201;28;20029;-77
2023/02/23 00:13:27;;;;;;;12.57;3.67;;;3.00;99.90;;;1.91;100.00;101258.03;4169743;28;20021;-77
2023/02/23 00:15:28;;;;;;;5.95;3.53;;;3.00;99.90;;;1.96;100.00;101276.00;4168221;28;20096;-77
2023/02/23 00:17:30;;;;;;;12.45;3.05;;;3.00;99.90;;;1.91;100.00;101258.03;4177645;28;20135;-77
2023/02/23 00:19:32;;;;;;;8.85;3.13;;;3.00;99.90;;;1.95;100.00;101256.94;4172587;28;20469;-77
2023/02/23 00:21:36;;;;;;;6.47;2.55;;;3.00;99.90;;;1.99;100.00;101261.03;4168185;28;20021;-77
2023/02/23 00:23:37;;;;;;;10.77;3.38;;;3.00;99.90;;;1.96;100.00;101261.22;4168126;28;20034;-77
2023/02/23 00:25:38;;;;;;;10.88;2.53;;;3.00;99.90;;;1.93;100.00;101258.78;4167913;28;20053;-77
2023/02/23 00:27:44;;;;;;;8.68;2.78;;;3.00;99.90;;;1.91;100.00;101257.22;4178546;28;20033;-77
2023/02/23 00:29:48;;;;;;;13.95;2.90;;;3.00;99.90;;;1.91;100.00;101252.81;4169261;28;20053;-77
2023/02/23 00:31:50;;;;;;;14.00;3.08;;;2.90;99.90;;;1.91;100.00;101247.63;4168217;28;20032;-77
2023/02/23 00:33:56;;;;;;;9.00;2.05;;;2.90;99.90;;;2.02;100.00;101247.00;4167892;28;20021;-77
2023/02/23 00:36:12;;;;;;;8.32;2.58;;;3.00;99.90;;;1.95;100.00;101246.53;4167909;28;20456;-77
2023/02/23 00:38:13;;;;;;;13.60;2.88;;;3.00;99.90;;;1.91;100.00;101241.59;4175505;28;20025;-77
2023/02/23 00:40:16;;;;;;;11.20;2.85;;;3.00;99.90;;;1.87;100.00;101248.75;4167939;28;20485;-77
2023/02/23 00:42:17;;;;;;;10.23;3.35;;;2.90;99.90;;;1.84;100.00;101251.53;4167861;28;20030;-77
2023/02/23 00:44:19;;;;;;;11.93;2.67;;;2.90;99.90;;;1.80;100.00;101264.78;4170099;28;20068;-77
2023/02/23 00:46:23;;;;;;;8.45;3.42;;;2.80;99.90;;;1.76;100.00;101261.53;4151508;28;20489;-77
2023/02/23 00:48:24;;;;;;;5.57;2.03;;;2.80;99.90;;;1.76;100.00;101256.34;4168808;28;20052;-77
2023/02/23 00:50:25;;;;;;;6.72;2.22;;;2.80;99.90;;;1.73;100.00;101238.31;4167603;28;20038;-77
2023/02/23 00:52:27;;;;;;;9.27;2.92;;;2.80;99.90;;;1.74;100.00;101239.13;4167809;28;20025;-77
2023/02/23 00:54:28;;;;;;;8.50;2.22;;;2.70;99.90;;;1.72;100.00;101243.56;4174651;28;20032;-77
2023/02/23 00:56:29;;;;;;;11.23;2.17;;;2.70;99.90;;;1.70;100.00;101235.88;4179454;28;20032;-77
2023/02/23 00:58:31;;;;;;;6.82;1.88;;;2.70;99.90;;;1.65;100.00;101237.88;4164439;28;20022;-77
2023/02/23 01:00:32;;;;;;;9.48;2.17;;;2.70;99.90;;;1.59;100.00;101227.81;4171631;28;20028;-77
2023/02/23 01:02:32;;;;;;;12.32;2.20;;;2.60;99.90;;;1.54;100.00;101225.50;4185583;28;20079;-77
2023/02/23 01:04:33;;;;;;;10.52;2.60;;;2.60;99.90;;;1.49;100.00;101224.09;4183794;28;20119;-77
2023/02/23 01:06:36;;;;;;;8.57;2.78;;;2.60;99.90;;;1.42;100.00;101204.56;4178654;28;20051;-78
2023/02/23 01:08:43;;;;;;;8.23;2.70;;;2.50;99.90;;;1.44;100.00;101213.09;4167718;28;20037;-77
2023/02/23 01:10:51;;;;;;;8.45;2.35;;;2.50;99.90;;;1.44;100.00;101202.69;4167710;28;20033;-77
2023/02/23 01:12:52;;;;;;;4.25;2.25;;;2.50;99.90;;;1.42;100.00;101199.34;4168874;28;20036;-77
2023/02/23 01:14:53;;;;;;;5.40;1.95;;;2.50;99.90;;;1.42;100.00;101194.16;4167341;28;20013;-77
2023/02/23 01:16:54;;;;;;;8.75;2.38;;;2.40;99.90;;;1.40;100.00;101196.00;4172896;28;20026;-77
2023/02/23 01:18:59;;;;;;;13.95;3.33;;;2.40;99.90;;;1.42;100.00;101207.16;4167370;28;20025;-77
2023/02/23 01:21:01;;;;;;;;;;;2.40;99.90;;;1.30;100.00;101206.09;4168113;28;20049;-77
2023/02/23 01:23:03;;;;;;;13.55;2.50;;;2.50;99.90;;;1.34;100.00;101211.94;4167232;28;19909;-77
2023/02/23 01:25:04;;;;;;;13.45;2.47;;;2.40;99.90;;;1.36;100.00;101220.50;4184199;28;20033;-77
2023/02/23 01:27:05;;;;;;;6.68;2.60;;;2.40;99.90;;;1.37;100.00;101209.19;4183518;28;20060;-77
2023/02/23 01:29:15;;;;;;;5.45;2.40;;;2.40;99.90;;;1.43;100.00;101220.06;4182200;28;20428;-77
2023/02/23 01:31:17;;;;;;;7.50;3.65;;;2.50;99.90;;;1.46;100.00;101209.50;4167934;28;20393;-77
2023/02/23 01:33:17;;;;;;;9.95;2.95;;;2.50;99.90;;;1.46;100.00;101201.72;4168409;28;20036;-77
2023/02/23 01:35:18;;;;;;;6.18;2.65;;;2.50;99.90;;;1.53;100.00;101207.38;4167570;28;20033;-77
2023/02/23 01:37:19;;;;;;;10.23;3.17;;;2.50;99.90;;;1.52;100.00;101198.72;4180836;28;20056;-77
2023/02/23 01:39:20;;;;;;;11.27;3.22;;;2.50;99.90;;;1.53;100.00;101199.56;4167396;28;20032;-77
2023/02/23 01:41:25;;;;;;;11.80;3.55;;;2.60;99.90;;;1.52;100.00;101180.53;4167411;28;20416;-77
2023/02/23 01:43:26;;;;;;;7.93;2.65;;;2.60;99.90;;;1.56;100.00;101191.59;4167266;28;20060;-77
2023/02/23 01:45:39;;;;;;;7.47;2.50;;;2.60;99.90;;;1.53;100.00;101186.56;4180332;28;20043;-77
2023/02/23 01:47:40;;;;;;;11.07;2.50;;;2.60;99.90;;;1.50;100.00;101186.75;4179054;28;20074;-77
2023/02/23 01:49:41;;;;;;;10.48;3.25;;;2.50;99.90;;;1.45;100.00;101191.38;4169530;28;20052;-77
2023/02/23 01:51:51;;;;;;;17.30;4.00;;;2.50;99.90;;;1.39;100.00;101197.78;4171711;28;20025;-77
2023/02/23 01:54:03;;;;;;;10.80;3.78;;;2.50;99.90;;;1.38;100.00;101195.25;4172258;28;20156;-77
2023/02/23 01:56:15;;;;;;;6.72;3.45;;;2.50;99.90;;;1.32;100.00;101193.84;4185245;28;20029;-77
2023/02/23 01:58:18;;;;;;;12.43;2.90;;;2.40;99.90;;;1.23;100.00;101183.94;4170579;28;20022;-77
2023/02/23 02:00:24;;;;;;;2.67;1.63;;;2.30;99.90;;;1.18;100.00;101185.97;4170713;28;20112;-77
2023/02/23 02:02:32;;;;;;;9.07;2.13;;;2.30;99.90;;;1.08;100.00;101183.06;4171758;28;20108;-77
2023/02/23 02:04:45;;;;;;;7.53;2.17;;;2.30;99.90;;;1.09;100.00;101196.88;4170210;28;20033;-77
2023/02/23 02:06:52;;;;;;;14.85;2.53;;;2.20;99.90;;;1.22;100.00;101199.66;4177406;28;20029;-77
2023/02/23 02:08:58;;;;;;;11.20;2.92;;;2.20;99.90;;;1.23;100.00;101196.09;4154196;28;20180;-77
2023/02/23 02:10:59;;;;;;;11.57;3.00;;;2.30;99.90;;;1.42;100.00;101195.00;4186343;28;20029;-77
2023/02/23 02:13:04;;;;;;;7.78;2.33;;;2.40;99.90;;;1.44;100.00;101197.50;4171341;28;20511;-77
2023/02/23 02:15:15;;;;;;;7.63;2.67;;;2.50;99.90;;;1.49;100.00;101203.28;4171288;28;20105;-77
2023/02/23 02:17:52;;;;;;;6.82;2.08;;;2.50;99.90;;;1.54;100.00;101201.25;4174881;28;20031;-77
2023/02/23 02:20:14;;;;;;;7.28;2.50;;;2.60;99.90;;;1.59;100.00;101196.63;4171372;28;20481;-77
2023/02/23 02:23:16;;;;;;;11.32;2.47;;;2.60;99.90;;;1.65;100.00;101199.72;4171294;28;20029;-77
2023/02/23 02:25:32;;;;;;;11.73;4.63;;;2.70;99.90;;;1.78;100.00;101202.47;4127495;28;20418;-77
2023/02/23 02:28:09;;;;;;;9.57;2.25;;;2.80;99.90;;;1.76;100.00;101188.72;4175173;28;20500;-77
2023/02/23 02:30:34;;;;;;;7.40;2.72;;;2.80;99.90;;;1.78;100.00;101181.66;4154464;28;20045;-77
2023/02/23 02:33:02;;;;;;;8.48;2.35;;;2.90;99.90;;;1.79;100.00;101178.13;4171286;28;20481;-77
2023/02/23 02:35:09;;;;;;;9.27;2.95;;;2.90;99.90;;;1.76;100.00;101178.31;4171209;28;20029;-77
2023/02/23 02:37:34;;;;;;;7.72;2.10;;;2.90;99.90;;;1.79;100.00;101180.72;4181126;28;20091;-77
2023/02/23 02:40:14;;;;;;;9.80;1.98;;;2.90;99.90;;;1.81;100.00;101170.22;4167376;28;20033;-77
2023/02/23 02:42:34;;;;;;;8.75;2.20;;;2.90;99.90;;;1.78;100.00;101167.81;4169991;28;20151;-77
2023/02/23 02:45:02;;;;;;;6.60;2.33;;;2.90;99.90;;;1.79;100.00;101175.53;4175743;28;20029;-77
2023/02/23 02:47:15;;;;;;;11.25;2.13;;;2.90;99.90;;;1.74;100.00;101171.50;4177002;28;20021;-77
2023/02/23 02:49:58;;;;;;;10.13;2.47;;;2.80;99.90;;;1.75;100.00;101175.78;4169544;28;20112;-77
2023/02/23 02:52:35;;;;;;;6.95;2.05;;;2.80;99.90;;;1.70;100.00;101163.06;4173478;28;20098;-77
2023/02/23 02:54:42;;;;;;;9.80;2.13;;;2.80;99.90;;;1.71;100.00;101163.88;4154663;28;20033;-77
2023/02/23 02:56:46;;;;;;;8.75;2.20;;;2.80;99.90;;;1.69;100.00;101169.19;4179954;28;20121;-77
2023/02/23 02:58:49;;;;;;;10.73;2.80;;;2.80;99.90;;;1.67;100.00;101158.03;4170546;28;20108;-77
2023/02/23 04:18:15;;;;;;;7.00;1.77;;;2.90;99.90;;;1.76;100.00;101100.28;4169435;28;20018;-77
2023/02/23 04:20:16;;;;;;;6.47;2.78;;;2.90;99.90;;;1.79;100.00;101102.72;4168247;28;20563;-77
2023/02/23 04:22:17;;;;;;;8.85;2.05;;;2.90;99.90;;;1.78;100.00;101103.63;4184511;28;20029;-77
2023/02/23 04:24:18;;;;;;;7.63;2.10;;;2.90;99.90;;;1.78;100.00;101121.84;4168178;28;20068;-77
2023/02/23 04:26:19;;;;;;;9.43;2.75;;;2.90;99.90;;;1.76;100.00;101108.09;4169320;28;20532;-77
2023/02/23 04:28:21;;;;;;;11.77;2.72;;;2.80;99.90;;;1.72;100.00;101114.41;4178570;28;20040;-77
2023/02/23 04:30:24;;;;;;;7.93;2.13;;;2.80;99.90;;;1.68;100.00;101124.13;4167896;28;20025;-77
2023/02/23 04:32:25;;;;;;;8.70;2.28;;;2.80;99.90;;;1.67;100.00;101129.44;4164715;28;20113;-77
2023/02/23 04:34:26;;;;;;;7.68;2.00;;;2.80;99.90;;;1.64;100.00;101121.81;4184242;28;20374;-77
2023/02/23 04:36:27;;;;;;;5.32;2.00;;;2.80;99.90;;;1.64;100.00;101132.22;4182167;28;20029;-77
2023/02/23 04:38:27;;;;;;;7.22;1.98;;;2.80;99.90;;;1.70;100.00;101136.22;4167948;28;20049;-77
2023/02/23 04:40:29;;;;;;;5.75;2.13;;;2.80;99.90;;;1.70;100.00;101133.63;4169096;28;20501;-77
2023/02/23 04:42:30;;;;;;;7.20;2.35;;;2.80;99.90;;;1.74;100.00;101124.69;4167909;28;20064;-77
2023/02/23 04:44:31;;;;;;;5.70;2.22;;;2.80;99.90;;;1.77;100.00;101127.13;4169113;28;20065;-77
2023/02/23 04:46:31;;;;;;;7.60;2.17;;;2.80;99.90;;;1.80;100.00;101130.38;4170613;28;20037;-77
2023/02/23 04:48:32;;;;;;;8.93;2.05;;;2.90;99.90;;;1.81;100.00;101134.66;4173133;28;20099;-77
2023/02/23 04:50:34;;;;;;;6.53;2.65;;;2.90;99.90;;;1.81;100.00;101129.44;4167609;28;20108;-77
2023/02/23 04:52:36;;;;;;;10.13;3.03;;;2.90;99.90;;;1.78;100.00;101114.03;4167726;28;20021;-77
2023/02/23 04:54:38;;;;;;;7.28;2.30;;;2.90;99.90;;;1.81;100.00;101118.22;4159627;28;20033;-77
2023/02/23 04:56:39;;;;;;;7.07;2.17;;;2.90;99.90;;;1.83;100.00;101121.53;4180547;28;20021;-77
2023/02/23 04:58:41;;;;;;;6.13;1.95;;;2.90;99.90;;;1.83;100.00;101124.16;4168807;28;20025;-77
2023/02/23 05:00:42;;;;;;;8.15;2.58;;;2.90;99.90;;;1.82;100.00;101120.75;4175264;28;20025;-77
2023/02/23 05:02:44;;;;;;;6.85;2.50;;;2.90;99.90;;;1.81;100.00;101119.06;4168753;28;20068;-77
2023/02/23 05:04:45;;;;;;;6.80;2.17;;;2.90;99.90;;;1.80;100.00;101111.31;4167522;28;20037;-77
2023/02/23 05:06:45;;;;;;;9.63;4.40;;;2.90;99.90;;;1.76;100.00;101105.50;4171581;28;20043;-77
2023/02/23 05:08:46;;;;;;;7.57;2.80;;;2.90;99.90;;;1.76;100.00;101102.91;4167707;28;20021;-77
2023/02/23 05:10:47;;;;;;;6.00;2.80;;;2.90;99.90;;;1.83;100.00;101119.78;4167539;28;20025;-77
2023/02/23 05:12:48;;;;;;;11.25;3.42;;;2.90;99.90;;;1.80;100.00;101116.53;4168027;28;20018;-77
2023/02/23 05:14:49;;;;;;;9.55;3.92;;;2.90;99.90;;;1.80;100.00;101129.53;4167448;28;20025;-77
2023/02/23 05:16:50;;;;;;;10.80;2.80;;;2.90;99.90;;;1.77;100.00;101114.09;4169468;28;20025;-77
2023/02/23 05:18:51;;;;;;;10.25;2.88;;;2.90;99.90;;;1.77;100.00;101109.75;4167311;28;20026;-77
2023/02/23 05:20:59;;;;;;;6.15;2.40;;;2.90;99.90;;;1.78;100.00;101111.44;4183830;28;20477;-77
2023/02/23 05:23:00;;;;;;;6.55;2.63;;;2.90;99.90;;;1.76;100.00;101105.50;4167370;28;20060;-77
2023/02/23 05:25:03;;;;;;;12.93;3.03;;;2.90;99.90;;;1.74;100.00;101102.13;4171166;28;20029;-77
2023/02/23 05:27:03;;;;;;;9.63;3.55;;;2.80;99.90;;;1.74;100.00;101096.94;4180436;28;20041;-77
2023/02/23 05:29:05;;;;;;;9.18;2.53;;;2.90;99.90;;;1.75;100.00;101097.78;4161267;28;20041;-77
2023/02/23 05:31:07;;;;;;;7.95;3.28;;;2.90;99.90;;;1.76;100.00;101096.84;4174176;28;20025;-77
2023/02/23 05:33:08;;;;;;;7.75;2.38;;;2.90;99.90;;;1.76;100.00;101083.84;4175120;28;20029;-77
2023/02/23 05:35:11;;;;;;;7.22;2.42;;;2.80;99.90;;;1.80;100.00;101085.31;4164910;28;20127;-77
2023/02/23 05:37:12;;;;;;;8.57;2.40;;;2.90;99.90;;;1.77;100.00;101094.16;4181597;28;20092;-77
2023/02/23 05:39:13;;;;;;;4.65;2.20;;;2.90;99.90;;;1.80;100.00;101096.56;4175549;28;20461;-77
2023/02/23 05:41:19;;;;;;;6.60;2.90;;;2.90;99.90;;;1.78;100.00;101082.81;4172917;28;20106;-77
2023/02/23 05:43:20;;;;;;;7.75;3.42;;;2.90;99.90;;;1.81;100.00;101094.81;4172936;28;20039;-77
2023/02/23 05:45:21;;;;;;;10.05;2.17;;;2.90;99.90;;;1.81;100.00;101090.44;4172691;28;20449;-77
2023/02/23 05:47:21;;;;;;;8.15;2.90;;;2.90;99.90;;;1.80;100.00;101099.16;4179283;28;20059;-77
2023/02/23 05:49:22;;;;;;;8.85;2.53;;;2.90;99.90;;;1.80;100.00;101093.13;4172627;28;20567;-77
2023/02/23 05:51:25;;;;;;;6.00;2.25;;;2.90;99.90;;;1.79;100.00;101100.13;4172995;28;20053;-77
2023/02/23 05:53:26;;;;;;;6.88;2.50;;;2.90;99.90;;;1.80;100.00;101099.16;4172704;28;20421;-77
2023/02/23 05:55:27;;;;;;;10.25;2.25;;;2.90;99.90;;;1.83;100.00;101100.75;4188907;28;20025;-77
2023/02/23 05:57:28;;;;;;;11.77;2.03;;;2.90;99.90;;;1.85;100.00;101112.72;4179686;28;20064;-77
2023/02/23 05:59:28;;;;;;;5.38;3.10;;;2.90;99.90;;;1.83;100.00;101104.19;4172612;28;20029;-76
2023/02/23 06:01:30;;;;;;;4.35;2.33;;;2.90;99.90;;;1.91;100.00;101108.94;4167672;28;20057;-77
2023/02/23 06:03:31;;;;;;;8.20;2.40;;;2.90;99.90;;;1.85;100.00;101099.72;4173617;28;20045;-76
2023/02/23 06:05:32;;;;;;;5.60;2.92;;;2.90;99.90;;;1.84;100.00;101092.84;4172682;28;20026;-77
2023/02/23 06:07:33;;;;;;;5.85;2.30;;;3.00;99.90;;;1.86;100.00;101097.97;4174762;28;20056;-77
2023/02/23 06:09:35;;;;;;;6.15;2.10;;;3.00;99.90;;;1.88;100.00;101096.13;4173772;28;20025;-77
2023/02/23 06:11:35;;;;;;;7.07;2.17;;;3.00;99.90;;;1.92;100.00;101095.81;4188848;28;20036;-77
2023/02/23 06:13:36;;;;;;;8.13;2.28;;;3.00;99.90;;;1.84;100.00;101074.66;4172539;28;20022;-77
2023/02/23 06:15:37;;;;;;;11.35;2.28;;;3.00;99.90;;;1.90;100.00;101082.09;4172759;28;20031;-77
2023/02/23 06:17:38;;;;;;;9.48;2.42;;;3.00;99.90;;;1.92;100.00;101075.03;4183123;28;20436;-77
2023/02/23 06:19:39;;;;;;;4.18;1.90;;;3.00;99.90;;;1.88;100.00;101073.53;4174343;28;20029;-76
2023/02/23 06:21:40;;;;;;;5.43;2.35;;;3.00;99.90;;;1.86;100.00;101067.59;4172462;28;20480;-77
2023/02/23 06:23:41;;;;;;;6.63;1.92;;;3.00;99.90;;;1.90;100.00;101076.88;4163441;28;20057;-77
2023/02/23 06:25:44;;;;;;;7.03;2.15;;;3.00;99.90;;;1.92;100.00;101075.03;4182801;28;20045;-77
2023/02/23 06:27:45;;;;;;;6.63;2.83;;;3.00;99.90;;;1.92;100.00;101079.38;4177526;28;20049;-77
2023/02/23 06:29:46;;;;;;;7.03;2.30;;;3.00;99.90;;;1.90;100.00;101079.50;4172544;28;20037;-77
2023/02/23 06:31:47;;;;;;;4.32;2.15;;;3.00;99.90;;;1.86;100.00;101074.53;4173745;28;20026;-77
2023/02/23 06:33:48;;;;;;;6.95;2.53;;;3.00;99.90;;;1.84;100.00;101076.41;4172414;28;20072;-77
2023/02/23 06:35:49;;;;;;;8.65;3.08;;;3.00;99.90;;;1.84;100.00;101072.06;4170470;28;20021;-77
2023/02/23 06:37:50;;;;;;;5.03;2.72;;;3.00;99.90;;;1.83;100.00;101075.56;4177718;28;20104;-76
2023/02/23 06:39:51;;;;;;;5.22;2.53;;;3.00;99.90;;;1.85;100.00;101084.09;4169855;28;20083;-77
2023/02/23 06:41:51;;;;;;;5.68;2.38;;;2.90;99.90;;;1.82;100.00;101081.72;4186481;28;20492;-76
2023/02/23 06:43:52;;;;;;;4.53;2.13;;;3.00;99.90;;;1.81;100.00;101080.03;4169708;28;20056;-77
2023/02/23 06:45:54;;;;;;;10.40;2.58;;;3.00;99.90;;;1.77;100.00;101078.53;4169719;28;20112;-76
2023/02/23 06:47:55;;;;;;;9.73;2.00;;;2.90;99.90;;;1.83;100.00;101080.78;4175354;28;20075;-76
2023/02/23 06:49:58;;;;;;;7.75;2.80;;;2.90;99.90;;;1.81;100.00;101090.44;4169578;28;20064;-77
2023/02/23 06:51:59;;;;;;;5.38;2.70;;;2.90;99.90;;;1.82;100.00;101091.28;4169610;28;20030;-77
2023/02/23 06:54:00;;;;;;;8.25;2.53;;;2.90;99.90;;;1.85;100.00;101089.31;4172860;28;20566;-77
2023/02/23 06:56:02;;;;;;;4.22;2.50;;;3.00;99.90;;;1.83;100.00;101088.56;4183455;28;20496;-77
2023/02/23 06:58:05;;;;;;;8.00;2.50;;;3.00;99.90;;;1.84;100.00;101086.81;4169694;28;20097;-77
2023/02/23 07:00:08;;;;;;;9.52;2.55;;;3.00;99.90;;;1.86;100.00;101082.34;4169313;28;20033;-77
2023/02/23 07:02:12;;;;;;;10.85;2.78;;;2.90;99.90;;;1.85;100.00;101099.72;4169896;28;20018;-77
2023/02/23 07:04:13;;;;;;;8.77;2.78;;;3.00;99.90;;;1.89;100.00;101096.00;4169310;28;20056;-77
2023/02/23 07:06:14;;;;;;;11.35;4.47;;;3.00;99.90;;;1.89;100.00;101096.00;4174814;28;20009;-77
2023/02/23 07:08:17;;;;;;;13.57;5.18;;;3.00;99.90;;;1.89;100.00;101090.81;4172325;28;20053;-77
2023/02/23 07:10:18;;;;;;;11.38;5.53;;;3.00;99.90;;;1.93;100.00;101087.09;4171116;28;20477;-77
2023/02/23 07:12:19;;;;;;;8.13;4.68;;;3.00;99.90;;;1.91;100.00;101078.53;4170520;28;20375;-77
2023/02/23 07:14:20;;;;;;;7.32;3.15;;;3.00;99.90;;;1.93;100.00;101084.50;4152884;28;20111;-77
2023/02/23 07:16:22;;;;;;;8.05;3.15;;;3.00;99.90;;;1.97;100.00;101077.34;4173894;28;20056;-77
2023/02/23 07:18:23;;;;;;;6.70;2.35;;;3.10;99.90;;;1.98;100.00;101076.41;4170279;28;20508;-77
2023/02/23 07:20:24;;;;;;;7.65;2.58;;;3.00;99.90;;;1.99;100.00;101071.13;4170416;28;20037;-77
2023/02/23 07:22:28;;;;;;;11.95;3.08;;;3.10;99.90;;;2.02;100.00;101070.94;4169202;28;20030;-77
2023/02/23 07:24:29;;;;;;;8.57;2.58;;;3.10;99.90;;;2.03;100.00;101069.19;4168896;28;20073;-77
2023/02/23 07:26:33;;;;;;;4.65;2.33;;;3.10;99.90;;;2.08;100.00;101069.72;4185397;28;20072;-77
2023/02/23 07:28:35;;;;;;;9.48;2.40;;;3.20;99.90;;;2.13;100.00;101073.72;4178220;28;20057;-77
2023/02/23 07:30:36;;;;;;;6.25;1.80;;;3.20;99.90;;;2.14;100.00;101064.16;4170157;28;20568;-77
2023/02/23 07:32:37;;;;;;;8.98;2.22;;;3.30;99.90;;;2.17;100.00;101066.56;4171438;28;20100;-77
2023/02/23 07:34:38;;;;;;;5.55;2.25;;;3.30;99.90;;;2.17;100.00;101069.16;4170411;28;20092;-77
2023/02/23 07:36:39;;;;;;;6.03;2.53;;;3.30;99.90;;;2.16;100.00;101073.53;4185505;28;20519;-77
2023/02/23 07:38:40;;;;;;;6.97;2.03;;;3.30;99.90;;;2.20;100.00;101077.63;4169235;28;20132;-77
2023/02/23 07:40:41;;;;;;;6.13;1.95;;;3.30;99.90;;;2.27;100.00;101085.06;4168790;28;20404;-77
2023/02/23 07:42:43;;;;;;;7.55;2.33;;;3.40;99.90;;;2.28;100.00;101077.13;4170108;28;20033;-77
2023/02/23 07:44:44;;;;;;;6.10;2.00;;;3.40;99.90;;;2.35;100.00;101082.81;4168951;28;20107;-77
2023/02/23 07:46:45;;;;;;;4.97;2.08;;;3.50;99.90;;;2.41;100.00;101080.66;4176213;28;20037;-77
2023/02/23 07:48:46;;;;;;;4.95;1.80;;;3.50;99.90;;;2.46;100.00;101083.81;4172123;28;20025;-77
2023/02/23 07:50:47;;;;;;;6.15;1.80;;;3.50;99.90;;;2.48;100.00;101078.50;4168917;28;20406;-77
2023/02/23 07:52:50;;;;;;;7.35;2.13;;;3.60;99.90;;;2.56;100.00;101087.50;4168618;28;20026;-77
2023/02/23 07:54:51;;;;;;;6.93;1.97;;;3.60;99.90;;;2.64;100.00;101100.03;4162502;28;20028;-77
2023/02/23 07:56:52;;;;;;;7.00;2.55;;;3.70;99.90;;;2.69;100.00;101092.75;4176486;28;20411;-77
2023/02/23 07:58:54;;;;;;;4.88;2.08;;;3.70;99.90;;;2.78;100.00;101099.97;4168633;28;20438;-77
2023/02/23 08:00:55;;;;;;;7.95;1.83;;;3.80;99.90;;;2.78;100.00;101090.41;4169763;28;20028;-77
2023/02/23 08:02:56;;;;;;;4.93;2.20;;;3.90;99.90;;;2.90;100.00;101107.03;4168433;28;20568;-77
2023/02/23 08:04:58;;;;;;;3.70;2.50;;;3.90;99.90;;;2.96;100.00;101111.84;4169644;28;20037;-77
2023/02/23 08:06:59;;;;;;;9.75;2.00;;;4.00;99.90;;;2.99;100.00;101106.44;4174444;28;20030;-77
2023/02/23 08:09:01;;;;;;;4.82;2.28;;;4.10;99.90;;;3.08;100.00;101121.47;4169627;28;20064;-77
2023/02/23 08:11:04;;;;;;;7.18;2.63;;;4.10;99.90;;;3.06;100.00;101110.31;4168566;28;20033;-77
2023/02/23 08:13:05;;;;;;;3.90;2.70;;;4.20;99.90;;;3.13;100.00;101129.84;4168276;28;20028;-77
2023/02/23 08:15:07;;;;;;;4.75;2.13;;;4.20;99.90;;;3.14;100.00;101136.72;4172746;28;20029;-77
2023/02/23 08:17:09;;;;;;;6.68;1.75;;;4.20;99.90;;;3.09;100.00;101125.75;4177700;28;20127;-77
2023/02/23 08:19:10;;;;;;;4.93;1.75;;;4.20;99.90;;;3.02;100.00;101118.41;4167955;28;20025;-77
2023/02/23 08:21:10;;;;;;;7.32;1.92;;;4.20;99.90;;;3.18;100.00;101139.97;4169432;28;20079;-77
2023/02/23 08:23:11;;;;;;;5.13;1.70;;;4.20;99.90;;;3.17;100.00;101133.91;4169554;28;20112;-77
2023/02/23 08:25:12;;;;;;;4.68;2.53;;;4.30;99.90;;;3.18;100.00;101137.38;4169398;28;20021;-77
2023/02/23 08:27:13;;;;;;;6.63;2.38;;;4.30;99.90;;;3.18;100.00;101145.19;4169434;28;20045;-77
2023/02/23 08:29:15;;;;;;;9.35;3.72;;;4.30;99.90;;;3.11;100.00;101142.13;4169230;28;20029;-77
2023/02/23 08:31:19;;;;;;;7.50;2.53;;;4.30;99.90;;;3.20;100.00;101151.13;4168272;28;20100;-77
2023/02/23 08:33:20;;;;;;;3.80;2.00;;;4.30;99.90;;;3.24;100.00;101153.44;4173919;28;20028;-77
2023/02/23 08:35:21;;;;;;;5.43;2.28;;;4.30;99.90;;;3.18;100.00;101153.84;4169457;28;20031;-77
2023/02/23 08:37:23;;;;;;;5.35;2.20;;;4.30;99.90;;;3.24;100.00;101158.66;4180020;28;20053;-77
2023/02/23 08:39:24;;;;;;;6.70;2.08;;;4.30;99.90;;;3.20;100.00;101151.97;4152215;28;20094;-77
2023/02/23 08:41:26;;;;;;;5.28;1.88;;;4.30;99.90;;;3.20;100.00;101136.31;4184518;28;20025;-77
2023/02/23 08:43:27;;;;;;;8.57;2.72;;;4.40;99.90;;;3.35;100.00;101147.53;4167814;28;20485;-78
2023/02/23 08:45:28;;;;;;;5.30;2.50;;;4.40;99.90;;;3.39;100.00;101146.41;4169117;28;20502;-78
2023/02/23 08:47:29;;;;;;;10.10;2.50;;;4.50;99.90;;;3.43;100.00;101160.91;4193438;28;20032;-78
2023/02/23 08:49:31;;;;;;;7.45;3.15;;;4.50;99.90;;;3.49;100.00;101149.25;4173837;28;20224;-78
2023/02/23 08:51:33;;;;;;;11.32;3.47;;;4.50;99.90;;;3.58;100.00;101151.25;4184088;28;20471;-78
2023/02/23 08:53:35;;;;;;;8.68;3.40;;;4.60;99.90;;;3.66;100.00;101149.78;4167793;28;20068;-79
2023/02/23 08:55:37;;;;;;;6.43;2.38;;;4.70;99.90;;;3.72;100.00;101149.38;4183793;28;20100;-78
2023/02/23 08:57:38;;;;;;;8.32;3.40;;;4.80;99.90;;;3.69;100.00;101153.97;4170320;28;20045;-79
2023/02/23 08:59:40;;;;;;;5.25;2.13;;;4.80;99.90;;;3.79;100.00;101160.25;4167109;28;20504;-79
2023/02/23 09:01:41;;;;;;;7.60;2.20;;;4.90;99.90;;;3.84;100.00;101166.84;4167756;28;20041;-79
2023/02/23 09:03:43;;;;;;;4.57;2.50;;;4.90;99.90;;;3.86;100.00;101164.09;4175800;28;20647;-79
2023/02/23 09:05:44;;;;;;;6.65;2.35;;;5.00;99.90;;;3.76;100.00;101171.72;4168884;28;20037;-79
2023/02/23 09:07:48;;;;;;;6.32;2.20;;;5.00;99.90;;;3.80;100.00;101167.13;4189137;28;20041;-79
2023/02/23 09:09:56;;;;;;;4.53;2.10;;;5.00;99.90;;;3.77;100.00;101169.94;4168788;28;20017;-79
2023/02/23 09:11:57;;;;;;;5.20;2.28;;;5.00;99.90;;;3.73;100.00;101171.09;4171644;28;20366;-79
2023/02/23 09:13:58;;;;;;;5.05;2.47;;;4.90;99.90;;;3.80;100.00;101167.97;4184081;28;20052;-79
2023/02/23 09:15:59;;;;;;;10.55;3.10;;;4.90;99.90;;;3.85;100.00;101167.69;4181898;28;20092;-79
2023/02/23 09:18:01;;;;;;;7.40;3.28;;;4.90;99.90;;;3.88;100.00;101154.44;4167224;28;20031;-79
2023/02/23 09:20:03;;;;;;;7.68;2.90;;;5.00;99.90;;;3.94;100.00;101159.22;4167337;28;20026;-79
2023/02/23 09:22:04;;;;;;;9.05;2.72;;;5.00;99.90;;;4.02;100.00;101158.69;4151034;28;20068;-79
2023/02/23 09:24:06;;;;;;;8.85;3.83;;;5.10;99.90;;;4.08;100.00;101153.91;4167507;28;20136;-79
2023/02/23 09:26:07;;;;;;;8.15;2.85;;;5.10;99.90;;;4.13;100.00;101148.34;4168108;28;20049;-79
2023/02/23 09:28:12;;;;;;;8.10;3.05;;;5.10;99.90;;;4.13;100.00;101149.19;4167432;28;20026;-79
2023/02/23 09:30:16;;;;;;;5.70;2.30;;;5.20;99.90;;;4.14;100.00;101145.66;4183821;28;20500;-79
2023/02/23 09:32:17;;;;;;;6.07;2.83;;;5.30;99.90;;;4.11;100.00;101145.88;4183489;28;20043;-79
2023/02/23 09:34:19;;;;;;;10.25;3.47;;;5.20;99.90;;;4.06;100.00;101139.28;4169312;28;20041;-79
2023/02/23 09:36:23;;;;;;;7.85;3.42;;;5.20;99.90;;;3.88;100.00;101138.75;4169697;28;20022;-79
2023/02/23 09:38:24;;;;;;;7.05;2.88;;;5.10;99.90;;;3.89;100.00;101141.25;4179996;28;20021;-79
2023/02/23 09:40:43;;;;;;;7.30;3.70;;;5.10;99.90;;;4.04;100.00;101139.38;4172414;28;20032;-78
2023/02/23 09:43:06;;;;;;;5.28;2.63;;;5.10;99.90;;;4.18;100.00;101149.69;4172559;28;20025;-79
2023/02/23 09:45:43;;;;;;;7.13;2.70;;;5.20;99.90;;;4.30;100.00;101142.84;4167957;28;20022;-76
2023/02/23 09:48:11;;;;;;;4.97;2.25;;;5.30;99.90;;;4.41;100.00;101148.97;4178536;28;20037;-77
2023/02/23 09:50:33;;;;;;;12.77;3.50;;;5.40;99.90;;;4.47;100.00;101148.53;4167073;28;20517;-76
2023/02/23 09:52:41;;;;;;;5.22;2.78;;;5.50;99.90;;;4.47;100.00;101132.03;4173332;28;20028;-77
2023/02/23 09:54:42;;;;;;;7.53;2.58;;;5.60;99.90;;;4.72;100.00;101141.59;4176277;28;20029;-77
2023/02/23 09:56:47;;;;;;;7.22;2.50;;;5.70;99.90;;;4.73;100.00;101138.88;4179354;28;20096;-76
2023/02/23 09:58:48;;;;;;;;;;;5.80;99.90;;;4.71;100.00;101126.84;4168652;28;20052;-77